Terminal Aerodrome Forecast
Issued by NWS

Home | Current Version | Previous Version | Text Only | Print | Product List | Glossary On
Versions: 1 2 3 4 5 6 7 8 9 10 11 12 13 14 15 16
385
FTUS41 KPBZ 281727
TAFHLG
TAF
KHLG 281727Z 2818/2918 34010KT P6SM VCSH BKN006
     FM282100 33010G18KT P6SM OVC010
     FM290200 34009KT P6SM BKN003
     FM290900 35005KT P6SM BKN015
     FM291700 36006KT P6SM FEW110=

USA.gov is the U.S. government's official web portal to all federal, state and local government web resources and services.